| time (UTC) | temp F | wind direction | speed MPH | gust MPH | rain 1hr in | rain 24hr in | rain mn in | humidity % | barometer mb |
| 20260507082916 | 46 | 68 | 2.0 | 3.0 | 0.00 | 1.14 | 0.14 | 92 | 1015.7 |
| 20260507081916 | 46 | 68 | 1.0 | 3.0 | 0.00 | 1.14 | 0.14 | 92 | 1015.7 |
| 20260507080916 | 46 | 45 | 2.0 | 7.0 | 0.00 | 1.14 | 0.14 | 92 | 1015.6 |
| 20260507075916 | 46 | 90 | 1.0 | 2.0 | 0.00 | 1.24 | 0.14 | 92 | 1015.5 |
| 20260507074936 | 45 | 68 | 2.0 | 4.0 | 0.00 | 1.24 | 0.14 | 92 | 1015.4 |
| 20260507073916 | 46 | 45 | 1.0 | 2.0 | 0.00 | 1.24 | 0.14 | 92 | 1015.1 |
| 20260507072936 | 45 | 68 | 4.0 | 5.0 | 0.00 | 1.24 | 0.14 | 92 | 1015.1 |
| 20260507071916 | 45 | 68 | 1.0 | 2.0 | 0.00 | 1.24 | 0.14 | 92 | 1015.0 |
| 20260507070916 | 45 | 45 | 2.0 | 3.0 | 0.00 | 1.24 | 0.14 | 92 | 1015.0 |
| 20260507065916 | 45 | 68 | 2.0 | 5.0 | 0.00 | 1.31 | 0.14 | 92 | 1014.9 |
| 20260507064916 | 45 | 113 | 2.0 | 4.0 | 0.00 | 1.31 | 0.14 | 92 | 1014.8 |
| 20260507063916 | 45 | 90 | 2.0 | 4.0 | 0.00 | 1.31 | 0.14 | 92 | 1014.6 |
| 20260507062916 | 45 | 45 | 3.0 | 4.0 | 0.00 | 1.31 | 0.14 | 92 | 1014.5 |
| 20260507061915 | 45 | 90 | 1.0 | 3.0 | 0.00 | 1.31 | 0.14 | 92 | 1014.4 |
| 20260507060916 | 45 | 90 | 2.0 | 3.0 | 0.00 | 1.31 | 0.14 | 92 | 1014.3 |
| 20260507055916 | 45 | 90 | 3.0 | 5.0 | 0.00 | 1.38 | 0.14 | 92 | 1014.1 |
| 20260507054916 | 45 | 45 | 3.0 | 6.0 | 0.00 | 1.38 | 0.14 | 92 | 1013.9 |
| 20260507053916 | 45 | 90 | 2.0 | 5.0 | 0.00 | 1.38 | 0.14 | 92 | 1013.9 |
| 20260507052915 | 45 | 68 | 2.0 | 4.0 | 0.00 | 1.38 | 0.14 | 92 | 1013.8 |
| 20260507051916 | 45 | 90 | 1.0 | 2.0 | 0.00 | 1.38 | 0.14 | 92 | 1013.7 |
| 20260507050915 | 45 | 45 | 2.0 | 3.0 | 0.00 | 1.38 | 0.14 | 92 | 1013.6 |
| 20260507045915 | 45 | 45 | 2.0 | 4.0 | 0.00 | 1.46 | 0.14 | 93 | 1013.5 |
| 20260507044916 | 45 | 45 | 2.0 | 2.0 | 0.01 | 1.46 | 0.14 | 93 | 1013.4 |
| 20260507043915 | 45 | 45 | 1.0 | 3.0 | 0.01 | 1.46 | 0.14 | 93 | 1013.3 |
| 20260507042916 | 45 | 158 | 2.0 | 5.0 | 0.01 | 1.46 | 0.14 | 93 | 1013.2 |
| 20260507041915 | 45 | 0.0 | 1.0 | 0.01 | 1.46 | 0.14 | 93 | 1013.1 | |
| 20260507040956 | 45 | 23 | 3.0 | 6.0 | 0.01 | 1.46 | 0.14 | 93 | 1012.9 |
| 20260507035915 | 46 | 23 | 3.0 | 3.0 | 0.01 | 1.56 | 0.14 | 93 | 1012.9 |
| 20260507034915 | 46 | 338 | 1.0 | 3.0 | 0.00 | 1.55 | 0.13 | 93 | 1012.8 |
| 20260507033915 | 46 | 45 | 2.0 | 4.0 | 0.00 | 1.55 | 0.13 | 93 | 1012.7 |
| 20260507032915 | 46 | 0.0 | 2.0 | 0.00 | 1.55 | 0.13 | 93 | 1012.7 | |
| 20260507031935 | 46 | 45 | 1.0 | 1.0 | 0.00 | 1.55 | 0.13 | 93 | 1012.6 |
| 20260507030916 | 46 | 45 | 1.0 | 3.0 | 0.00 | 1.55 | 0.13 | 93 | 1012.5 |
| 20260507025916 | 46 | 23 | 4.0 | 5.0 | 0.00 | 1.61 | 0.13 | 93 | 1012.4 |
| 20260507024916 | 47 | 45 | 2.0 | 3.0 | 0.00 | 1.61 | 0.13 | 93 | 1012.3 |
| 20260507023916 | 47 | 45 | 2.0 | 4.0 | 0.01 | 1.61 | 0.13 | 93 | 1012.2 |
| 20260507022915 | 47 | 45 | 2.0 | 3.0 | 0.01 | 1.61 | 0.13 | 93 | 1012.1 |
| 20260507021915 | 47 | 45 | 1.0 | 2.0 | 0.01 | 1.61 | 0.13 | 93 | 1012.2 |
| 20260507020936 | 47 | 0 | 1.0 | 3.0 | 0.01 | 1.61 | 0.13 | 93 | 1012.0 |
| 20260507015915 | 47 | 338 | 1.0 | 2.0 | 0.01 | 1.65 | 0.13 | 93 | 1011.9 |
| 20260507014915 | 47 | 0.0 | 1.0 | 0.01 | 1.65 | 0.13 | 93 | 1011.9 | |
| 20260507013915 | 47 | 0.0 | 2.0 | 0.01 | 1.64 | 0.13 | 93 | 1011.8 | |
| 20260507012936 | 47 | 23 | 2.0 | 3.0 | 0.01 | 1.64 | 0.13 | 93 | 1011.8 |
| 20260507011915 | 47 | 23 | 2.0 | 3.0 | 0.01 | 1.64 | 0.13 | 93 | 1011.8 |
| 20260507010915 | 47 | 45 | 1.0 | 2.0 | 0.01 | 1.64 | 0.13 | 93 | 1011.8 |
| 20260507005916 | 47 | 45 | 1.0 | 3.0 | 0.02 | 1.65 | 0.13 | 93 | 1011.7 |
| 20260507004915 | 47 | 0.0 | 1.0 | 0.02 | 1.65 | 0.13 | 93 | 1011.7 | |
| 20260507003936 | 47 | 45 | 1.0 | 2.0 | 0.02 | 1.65 | 0.12 | 93 | 1011.6 |
| 20260507002915 | 47 | 23 | 2.0 | 4.0 | 0.02 | 1.65 | 0.12 | 93 | 1011.6 |
| 20260507001916 | 47 | 45 | 4.0 | 8.0 | 0.04 | 1.65 | 0.12 | 93 | 1011.5 |
| 20260507000915 | 47 | 45 | 3.0 | 4.0 | 0.05 | 1.65 | 0.12 | 93 | 1011.5 |
| 20260506235915 | 47 | 45 | 2.0 | 3.0 | 0.06 | 1.64 | 0.11 | 93 | 1011.4 |
| 20260506234915 | 47 | 45 | 2.0 | 4.0 | 0.06 | 1.63 | 0.10 | 93 | 1011.4 |
| 20260506233936 | 47 | 90 | 2.0 | 3.0 | 0.06 | 1.62 | 0.09 | 93 | 1011.4 |
| 20260506232916 | 47 | 90 | 1.0 | 2.0 | 0.07 | 1.62 | 0.09 | 93 | 1011.3 |
| 20260506231916 | 47 | 45 | 2.0 | 4.0 | 0.06 | 1.61 | 0.08 | 93 | 1011.2 |
| 20260506230916 | 48 | 45 | 3.0 | 4.0 | 0.06 | 1.60 | 0.07 | 93 | 1011.3 |
| 20260506225936 | 48 | 45 | 1.0 | 1.0 | 0.06 | 1.58 | 0.06 | 93 | 1011.2 |
| 20260506224915 | 48 | 0.0 | 1.0 | 0.06 | 1.57 | 0.05 | 93 | 1011.2 | |
| 20260506223916 | 48 | 0.0 | 0.0 | 0.05 | 1.57 | 0.04 | 93 | 1011.0 | |
| 20260506222915 | 48 | 0.0 | 1.0 | 0.03 | 1.55 | 0.02 | 93 | 1011.0 | |
| 20260506221916 | 48 | 0.0 | 1.0 | 0.02 | 1.54 | 0.02 | 93 | 1010.9 | |
| 20260506220916 | 48 | 45 | 3.0 | 4.0 | 0.02 | 1.54 | 0.01 | 93 | 1010.9 |
| 20260506215916 | 48 | 45 | 2.0 | 3.0 | 0.02 | 1.53 | 1.53 | 93 | 1010.8 |
| 20260506214916 | 48 | 68 | 2.0 | 4.0 | 0.02 | 1.52 | 1.52 | 93 | 1010.8 |
| 20260506213936 | 48 | 45 | 2.0 | 4.0 | 0.03 | 1.52 | 1.52 | 93 | 1010.6 |
| 20260506212916 | 48 | 45 | 3.0 | 5.0 | 0.05 | 1.52 | 1.52 | 93 | 1010.6 |
| 20260506211916 | 48 | 68 | 2.0 | 5.0 | 0.06 | 1.52 | 1.52 | 94 | 1010.4 |
| 20260506210916 | 48 | 90 | 2.0 | 3.0 | 0.08 | 1.51 | 1.51 | 94 | 1010.4 |
| 20260506205916 | 48 | 45 | 2.0 | 3.0 | 0.11 | 1.50 | 1.50 | 94 | 1010.5 |
| 20260506204916 | 48 | 45 | 1.0 | 2.0 | 0.13 | 1.50 | 1.50 | 94 | 1010.5 |
| 20260506203936 | 48 | 0.0 | 1.0 | 0.15 | 1.49 | 1.49 | 94 | 1010.4 | |
| 20260506202936 | 48 | 45 | 2.0 | 5.0 | 0.16 | 1.47 | 1.47 | 94 | 1010.4 |
| 20260506201916 | 48 | 45 | 3.0 | 7.0 | 0.17 | 1.46 | 1.46 | 94 | 1010.3 |
| 20260506200916 | 48 | 45 | 2.0 | 3.0 | 0.18 | 1.43 | 1.43 | 94 | 1010.2 |
| 20260506195916 | 48 | 45 | 4.0 | 6.0 | 0.17 | 1.39 | 1.39 | 94 | 1010.2 |
| 20260506194916 | 48 | 45 | 3.0 | 5.0 | 0.17 | 1.36 | 1.36 | 94 | 1010.2 |
| 20260506193916 | 48 | 338 | 2.0 | 6.0 | 0.16 | 1.34 | 1.34 | 94 | 1010.1 |
| 20260506192916 | 48 | 45 | 2.0 | 6.0 | 0.14 | 1.31 | 1.31 | 94 | 1010.1 |
| 20260506191936 | 48 | 23 | 1.0 | 3.0 | 0.13 | 1.28 | 1.28 | 94 | 1009.9 |
| 20260506190916 | 48 | 45 | 2.0 | 3.0 | 0.11 | 1.24 | 1.24 | 94 | 1009.9 |
| 20260506185916 | 48 | 23 | 4.0 | 6.0 | 0.10 | 1.21 | 1.21 | 94 | 1009.7 |
| 20260506184916 | 48 | 23 | 5.0 | 7.0 | 0.10 | 1.20 | 1.20 | 94 | 1009.6 |
| 20260506183916 | 48 | 23 | 3.0 | 6.0 | 0.10 | 1.18 | 1.18 | 94 | 1009.4 |
| 20260506182916 | 48 | 0 | 2.0 | 5.0 | 0.12 | 1.17 | 1.17 | 94 | 1009.3 |
| 20260506181916 | 48 | 338 | 2.0 | 4.0 | 0.11 | 1.15 | 1.15 | 94 | 1009.3 |
| 20260506180936 | 48 | 45 | 3.0 | 8.0 | 0.11 | 1.13 | 1.13 | 94 | 1009.2 |
| 20260506175916 | 48 | 45 | 3.0 | 7.0 | 0.13 | 1.11 | 1.11 | 94 | 1009.2 |
| 20260506174916 | 48 | 45 | 3.0 | 7.0 | 0.13 | 1.09 | 1.09 | 94 | 1009.1 |
| 20260506173916 | 48 | 23 | 3.0 | 7.0 | 0.13 | 1.08 | 1.08 | 94 | 1009.1 |
| 20260506172916 | 48 | 0 | 1.0 | 2.0 | 0.15 | 1.06 | 1.06 | 94 | 1009.2 |
| 20260506171916 | 48 | 45 | 1.0 | 2.0 | 0.17 | 1.03 | 1.03 | 94 | 1009.1 |
| 20260506170916 | 48 | 0.0 | 1.0 | 0.19 | 1.02 | 1.02 | 94 | 1008.9 | |
| 20260506165916 | 48 | 23 | 2.0 | 4.0 | 0.19 | 0.98 | 0.98 | 94 | 1008.9 |
| 20260506164916 | 48 | 0 | 1.0 | 3.0 | 0.20 | 0.97 | 0.97 | 95 | 1008.9 |
| 20260506163916 | 48 | 45 | 3.0 | 5.0 | 0.18 | 0.94 | 0.94 | 95 | 1008.9 |
| 20260506162916 | 48 | 0 | 1.0 | 2.0 | 0.14 | 0.90 | 0.90 | 95 | 1008.9 |
| 20260506161916 | 48 | 0 | 1.0 | 4.0 | 0.10 | 0.86 | 0.86 | 95 | 1008.9 |
| 20260506160916 | 48 | 0.0 | 0.0 | 0.07 | 0.82 | 0.82 | 95 | 1008.9 | |
| 20260506155916 | 48 | 45 | 2.0 | 3.0 | 0.05 | 0.80 | 0.80 | 95 | 1008.8 |
| 20260506154916 | 48 | 45 | 4.0 | 6.0 | 0.03 | 0.77 | 0.77 | 95 | 1008.8 |
| 20260506153916 | 48 | 45 | 3.0 | 7.0 | 0.02 | 0.76 | 0.76 | 95 | 1008.8 |
| 20260506152936 | 48 | 45 | 3.0 | 5.0 | 0.02 | 0.76 | 0.76 | 95 | 1008.7 |
| 20260506151916 | 48 | 23 | 3.0 | 5.0 | 0.03 | 0.76 | 0.76 | 95 | 1008.8 |
| 20260506150916 | 48 | 0 | 2.0 | 3.0 | 0.02 | 0.75 | 0.75 | 95 | 1008.7 |
| 20260506145916 | 48 | 68 | 2.0 | 4.0 | 0.02 | 0.75 | 0.75 | 95 | 1008.7 |
| 20260506144916 | 48 | 23 | 3.0 | 7.0 | 0.02 | 0.74 | 0.74 | 95 | 1008.6 |
| 20260506143916 | 48 | 45 | 1.0 | 3.0 | 0.03 | 0.74 | 0.74 | 95 | 1008.5 |
| 20260506142916 | 48 | 68 | 4.0 | 9.0 | 0.03 | 0.73 | 0.73 | 95 | 1008.6 |
| 20260506141936 | 48 | 45 | 4.0 | 8.0 | 0.03 | 0.72 | 0.72 | 95 | 1008.6 |
| 20260506140916 | 48 | 45 | 2.0 | 4.0 | 0.03 | 0.72 | 0.72 | 95 | 1008.6 |
| 20260506135916 | 48 | 45 | 4.0 | 6.0 | 0.04 | 0.72 | 0.72 | 95 | 1008.6 |
| 20260506134916 | 48 | 45 | 3.0 | 7.0 | 0.03 | 0.72 | 0.72 | 95 | 1008.7 |
| 20260506133917 | 48 | 45 | 3.0 | 5.0 | 0.02 | 0.71 | 0.71 | 95 | 1008.7 |
| 20260506132916 | 48 | 68 | 4.0 | 8.0 | 0.02 | 0.70 | 0.70 | 95 | 1008.7 |
| 20260506131916 | 48 | 45 | 4.0 | 6.0 | 0.01 | 0.69 | 0.69 | 96 | 1008.6 |
| 20260506130916 | 48 | 45 | 5.0 | 9.0 | 0.01 | 0.69 | 0.69 | 96 | 1008.6 |
| 20260506125936 | 48 | 45 | 3.0 | 5.0 | 0.00 | 0.69 | 0.69 | 96 | 1008.6 |
| 20260506124916 | 48 | 45 | 4.0 | 8.0 | 0.01 | 0.69 | 0.69 | 96 | 1008.5 |
| 20260506123916 | 48 | 68 | 5.0 | 6.0 | 0.01 | 0.69 | 0.69 | 96 | 1008.5 |
| 20260506122916 | 48 | 45 | 3.0 | 7.0 | 0.01 | 0.69 | 0.69 | 96 | 1008.4 |
| 20260506121916 | 48 | 68 | 3.0 | 6.0 | 0.01 | 0.69 | 0.69 | 96 | 1008.4 |
| 20260506120936 | 48 | 68 | 3.0 | 5.0 | 0.01 | 0.69 | 0.69 | 96 | 1008.4 |
| 20260506115916 | 48 | 45 | 7.0 | 10.0 | 0.01 | 0.69 | 0.69 | 96 | 1008.2 |
| 20260506114916 | 48 | 45 | 3.0 | 5.0 | 0.01 | 0.68 | 0.68 | 96 | 1008.3 |
| 20260506113916 | 47 | 45 | 4.0 | 8.0 | 0.01 | 0.68 | 0.68 | 96 | 1008.3 |
| 20260506112916 | 48 | 68 | 4.0 | 6.0 | 0.02 | 0.68 | 0.68 | 96 | 1008.4 |
| 20260506111916 | 48 | 45 | 4.0 | 7.0 | 0.02 | 0.68 | 0.68 | 96 | 1008.4 |
| 20260506110936 | 47 | 68 | 6.0 | 9.0 | 0.03 | 0.68 | 0.68 | 96 | 1008.3 |
| 20260506105936 | 47 | 23 | 5.0 | 7.0 | 0.04 | 0.68 | 0.68 | 96 | 1008.3 |
| 20260506104916 | 47 | 90 | 3.0 | 5.0 | 0.03 | 0.67 | 0.67 | 96 | 1008.3 |
| 20260506103916 | 47 | 68 | 4.0 | 5.0 | 0.03 | 0.66 | 0.66 | 96 | 1008.3 |
| 20260506102936 | 47 | 45 | 5.0 | 6.0 | 0.03 | 0.66 | 0.66 | 96 | 1008.3 |
| 20260506101916 | 47 | 68 | 5.0 | 7.0 | 0.03 | 0.65 | 0.65 | 96 | 1008.2 |
| 20260506100936 | 46 | 45 | 1.0 | 3.0 | 0.03 | 0.65 | 0.65 | 96 | 1008.3 |
| 20260506095956 | 46 | 90 | 3.0 | 5.0 | 0.03 | 0.64 | 0.64 | 96 | 1008.3 |
| 20260506094916 | 46 | 45 | 2.0 | 4.0 | 0.05 | 0.64 | 0.64 | 96 | 1008.3 |
| 20260506093916 | 46 | 68 | 1.0 | 2.0 | 0.05 | 0.63 | 0.63 | 96 | 1008.2 |
| 20260506092916 | 46 | 90 | 2.0 | 3.0 | 0.06 | 0.63 | 0.63 | 96 | 1008.2 |
| 20260506091916 | 46 | 45 | 1.0 | 2.0 | 0.07 | 0.62 | 0.62 | 97 | 1008.2 |
| 20260506090936 | 45 | 113 | 2.0 | 3.0 | 0.07 | 0.61 | 0.61 | 97 | 1008.2 |
| 20260506085916 | 45 | 0.0 | 1.0 | 0.08 | 0.61 | 0.61 | 97 | 1008.2 | |
| 20260506084936 | 45 | 45 | 3.0 | 6.0 | 0.08 | 0.60 | 0.59 | 97 | 1008.2 |
| 20260506083916 | 45 | 45 | 3.0 | 4.0 | 0.09 | 0.59 | 0.58 | 97 | 1008.2 |